createdAt,value
2023-05-09T16:31:39.674Z,88.78
2023-05-09T16:34:08.246Z,89.09
2023-05-09T16:36:37.935Z,89.52
2023-05-09T16:39:06.535Z,89.70
2023-05-09T16:41:35.124Z,89.23
2023-05-09T16:44:03.730Z,88.85
2023-05-09T16:46:32.847Z,88.52
2023-05-09T16:49:01.187Z,86.06
2023-05-09T16:51:30.815Z,84.26
2023-05-09T16:53:59.314Z,82.38
2023-05-09T16:56:27.882Z,83.15
2023-05-09T16:58:56.755Z,83.64
2023-05-09T17:01:25.181Z,85.06
2023-05-09T17:03:55.296Z,85.87
2023-05-09T17:06:23.986Z,83.35
2023-05-09T17:08:52.876Z,84.92
2023-05-09T17:11:22.894Z,86.24
2023-05-09T17:13:51.484Z,86.65
2023-05-09T17:16:20.220Z,87.64
2023-05-09T17:18:48.754Z,87.18
2023-05-09T17:21:17.560Z,87.61
2023-05-09T17:23:46.140Z,87.56
2023-05-09T17:26:16.065Z,87.72
2023-05-09T17:28:44.533Z,88.05
2023-05-09T17:31:13.467Z,87.62
2023-05-09T17:33:43.739Z,87.92
2023-05-09T17:36:12.044Z,88.38
2023-05-09T17:38:40.418Z,88.98
2023-05-09T17:41:08.714Z,88.24
2023-05-09T17:43:36.979Z,85.44
2023-05-09T17:46:05.410Z,86.39
2023-05-09T17:48:34.882Z,87.45
2023-05-09T17:51:03.313Z,88.09
2023-05-09T17:53:31.882Z,88.94
2023-05-09T17:56:00.586Z,89.34
2023-05-09T17:58:29.053Z,89.70
2023-05-09T18:00:59.773Z,89.81
2023-05-09T18:03:29.168Z,89.63
2023-05-09T18:05:57.759Z,90.19
2023-05-09T18:08:26.573Z,90.45
2023-05-09T18:10:56.072Z,90.94
2023-05-09T18:13:24.628Z,91.01
2023-05-09T18:15:55.280Z,90.96
2023-05-09T18:18:23.950Z,90.86
2023-05-09T18:20:52.379Z,90.38
2023-05-09T18:23:21.993Z,89.15
2023-05-09T18:25:50.577Z,89.09
2023-05-09T18:28:24.719Z,89.38
2023-05-09T18:30:54.949Z,89.83
2023-05-09T18:33:26.101Z,90.36
2023-05-09T18:35:55.671Z,88.96
2023-05-09T18:38:25.544Z,88.84
2023-05-09T18:40:54.539Z,88.82
2023-05-09T18:43:23.535Z,88.50
2023-05-09T18:45:52.222Z,89.57
2023-05-09T18:48:22.558Z,90.08
2023-05-09T18:51:00.816Z,90.68
2023-05-09T18:53:29.195Z,89.58
2023-05-09T18:55:57.776Z,88.88
2023-05-09T18:58:26.087Z,88.16
2023-05-09T19:00:55.072Z,88.15
2023-05-09T19:07:03.138Z,87.00
2023-05-09T19:09:32.055Z,87.20
2023-05-09T19:12:04.529Z,88.33
2023-05-09T19:14:32.918Z,88.98
2023-05-09T19:17:01.983Z,88.70
2023-05-09T19:19:30.340Z,88.54
2023-05-09T19:21:58.806Z,87.91
2023-05-09T19:24:27.598Z,89.12
2023-05-09T19:26:55.879Z,88.99
2023-05-09T19:29:24.270Z,87.95
2023-05-09T19:31:52.635Z,89.00
2023-05-09T19:34:21.367Z,89.49
2023-05-09T19:36:49.708Z,88.43
2023-05-09T19:39:18.028Z,88.49
2023-05-09T19:41:46.424Z,89.28
2023-05-09T19:44:14.951Z,88.16
2023-05-09T19:46:43.600Z,88.17
2023-05-09T19:49:13.363Z,88.40
2023-05-09T19:51:42.147Z,86.45
2023-05-09T19:54:10.394Z,88.32
2023-05-09T19:56:38.710Z,89.15
2023-05-09T19:59:07.631Z,89.66
2023-05-09T20:01:36.273Z,90.21
2023-05-09T20:04:05.107Z,90.04
2023-05-09T20:06:33.806Z,89.90
2023-05-09T20:09:02.169Z,89.80
2023-05-09T20:11:30.910Z,89.66
2023-05-09T20:13:59.350Z,88.64
2023-05-09T20:16:28.003Z,89.41
2023-05-09T20:18:58.152Z,87.41
2023-05-09T20:21:27.913Z,88.58
2023-05-09T20:23:59.978Z,88.06
2023-05-09T20:26:29.940Z,87.72
2023-05-09T20:29:01.907Z,88.74
2023-05-09T20:31:31.832Z,89.37
2023-05-09T20:34:00.658Z,89.46
2023-05-09T20:36:30.180Z,89.16
2023-05-09T20:38:58.570Z,86.07
2023-05-09T20:41:27.361Z,87.72
2023-05-09T20:44:03.670Z,88.18
2023-05-09T20:46:32.196Z,87.96
2023-05-09T20:49:00.937Z,88.89
2023-05-09T20:51:29.486Z,89.17
2023-05-09T20:53:58.970Z,89.53
2023-05-09T20:56:30.687Z,89.87
2023-05-09T20:59:01.216Z,89.83
2023-05-09T21:01:32.559Z,89.91
2023-05-09T21:04:01.222Z,90.09
2023-05-09T21:06:29.880Z,89.86
2023-05-09T21:08:58.311Z,89.96
2023-05-09T21:11:26.907Z,89.44
2023-05-09T21:13:55.348Z,89.78
2023-05-09T21:16:23.777Z,88.51
2023-05-09T21:18:52.250Z,85.94
2023-05-09T21:21:20.607Z,87.13
2023-05-09T21:23:49.121Z,86.20
2023-05-09T21:26:17.527Z,86.59
2023-05-09T21:28:46.021Z,86.85
2023-05-09T21:31:16.460Z,88.15
2023-05-09T21:33:44.912Z,88.21
2023-05-09T21:36:13.387Z,87.85
2023-05-09T21:38:41.715Z,88.00
2023-05-09T21:41:10.325Z,88.49
2023-05-09T21:43:38.739Z,89.19
2023-05-09T21:46:07.287Z,88.77
2023-05-09T21:48:36.011Z,87.85
2023-05-09T21:51:04.628Z,88.34
2023-05-09T21:53:33.006Z,88.52
2023-05-09T21:56:01.344Z,89.46
2023-05-09T21:58:29.753Z,89.93
2023-05-09T22:00:58.025Z,90.31
2023-05-09T22:03:26.548Z,90.60
2023-05-09T22:05:55.098Z,90.68
2023-05-09T22:08:23.651Z,90.68
2023-05-09T22:10:52.841Z,90.79
2023-05-09T22:13:21.409Z,90.74
2023-05-09T22:15:49.982Z,90.87
2023-05-09T22:18:18.282Z,90.92
2023-05-09T22:20:46.901Z,90.93
2023-05-09T22:23:15.277Z,90.94
2023-05-09T22:25:43.811Z,91.11
2023-05-09T22:28:12.390Z,91.13
2023-05-09T22:30:40.813Z,91.05
2023-05-09T22:33:09.275Z,90.78
2023-05-09T22:35:37.700Z,90.92
2023-05-09T22:38:06.922Z,89.01
2023-05-09T22:40:35.256Z,88.82
2023-05-09T22:43:03.980Z,89.63
2023-05-09T22:45:32.564Z,90.25
2023-05-09T22:48:00.880Z,90.61
2023-05-09T22:50:29.276Z,90.79
2023-05-09T22:52:57.895Z,90.83
2023-05-09T22:55:26.264Z,90.76
2023-05-09T22:57:54.852Z,90.84
2023-05-09T23:00:23.255Z,90.97
2023-05-09T23:02:51.775Z,91.14
2023-05-09T23:05:21.636Z,91.10
2023-05-09T23:07:49.974Z,91.08
2023-05-09T23:10:18.618Z,90.44
2023-05-09T23:12:47.367Z,89.95
2023-05-09T23:15:15.925Z,90.49
2023-05-09T23:17:44.427Z,90.21
2023-05-09T23:20:13.293Z,90.17
2023-05-09T23:22:41.759Z,89.87
2023-05-09T23:25:10.597Z,89.50
2023-05-09T23:27:41.343Z,89.98
2023-05-09T23:30:10.487Z,90.30
2023-05-09T23:32:38.941Z,90.55
2023-05-09T23:35:07.674Z,89.42
2023-05-09T23:37:36.038Z,89.60
2023-05-09T23:40:05.054Z,89.90
2023-05-09T23:42:33.549Z,89.85
2023-05-09T23:45:01.783Z,90.15
2023-05-09T23:47:30.305Z,90.33
2023-05-09T23:49:58.619Z,90.45
2023-05-09T23:52:27.065Z,90.47
2023-05-09T23:54:55.491Z,90.13
2023-05-09T23:57:24.148Z,89.71
2023-05-09T23:59:52.511Z,89.64
